^^
Gobles Weather Station Historical Data
 
Daily Summary for July 15, 2024 Units:  English    Metric   Both
Daily Weekly Monthly Yearly
  Current: High: Low: Average:
Temperature: 68.1 °F 68.1 °F 59.1 °F 61.4 °F
Dew Point: 57 °F 57.2 °F 54 °F 55.1 °F
Humidity: 67.8% 84.7% 67.8% 80%
Wind Speed: 2.2mph 4.1mph 0mph 1.6mph
Wind Gust: 8mph 10.4mph - -
WindWSW - - South
Pressure: 30.13 in 30.14 in 30.06 in -
Precipitation: 0.00 in      
 
 
Tabular Data for July 15, 2024
Time Temperature Dew Point Pressure Wind Wind Speed Wind Gust Humidity Rainfall Rate (Hourly) solar
00:09 63.1 °F 56.1 °F 30.06 in South 2.3 mph 5 mph 78% 0.00 in 0 W/m2
00:14 62.9 °F 56 °F 30.06 in SSW 1.8 mph 6 mph 78.2% 0.00 in 0 W/m2
00:19 63 °F 56.1 °F 30.06 in SW 1.6 mph 7 mph 78.3% 0.00 in 0 W/m2
00:24 62.8 °F 56 °F 30.06 in SW 2.7 mph 7 mph 78.5% 0.00 in 0 W/m2
00:29 62.9 °F 56 °F 30.06 in SSW 2 mph 7 mph 78.4% 0.00 in 0 W/m2
00:34 62.7 °F 56 °F 30.07 in SSW 2.4 mph 7 mph 78.6% 0.00 in 0 W/m2
00:39 62.6 °F 56 °F 30.07 in SSW 1.8 mph 7 mph 79% 0.00 in 0 W/m2
00:44 62.5 °F 55.9 °F 30.07 in SW 2.3 mph 6 mph 79% 0.00 in 0 W/m2
00:49 62.4 °F 55.7 °F 30.07 in SSW 2.4 mph 7 mph 78.8% 0.00 in 0 W/m2
00:54 62.2 °F 55.6 °F 30.07 in SW 1.4 mph 7 mph 79% 0.00 in 0 W/m2
00:59 61.9 °F 55.4 °F 30.07 in SW 1.9 mph 6 mph 79.3% 0.00 in 0 W/m2
01:04 61.7 °F 55.5 °F 30.07 in SW 2.2 mph 7 mph 80% 0.00 in 0 W/m2
01:09 61.6 °F 55.2 °F 30.07 in SW 1.8 mph 7 mph 79.6% 0.00 in 0 W/m2
01:14 61.5 °F 55.3 °F 30.07 in SSW 1.6 mph 7 mph 80% 0.00 in 0 W/m2
01:19 61.3 °F 55.2 °F 30.07 in NW 0.7 mph 3.5 mph 80.2% 0.00 in 0 W/m2
01:24 61.4 °F 55.4 °F 30.07 in WSW 1.9 mph 5 mph 80.6% 0.00 in 0 W/m2
01:29 61.2 °F 55.2 °F 30.07 in South 1.3 mph 5 mph 80.5% 0.00 in 0 W/m2
01:34 61.2 °F 55.3 °F 30.07 in South 1.2 mph 3.5 mph 81% 0.00 in 0 W/m2
01:39 61.2 °F 55.3 °F 30.07 in SSE 1.1 mph 4 mph 81% 0.00 in 0 W/m2
01:44 61.1 °F 55.2 °F 30.07 in SSW 1.1 mph 4 mph 81.2% 0.00 in 0 W/m2
01:49 61.2 °F 55.3 °F 30.07 in South 0.6 mph 4 mph 81% 0.00 in 0 W/m2
01:54 60.8 °F 55.1 °F 30.08 in South 0.4 mph 2.3 mph 81.4% 0.00 in 0 W/m2
01:59 60.7 °F 55.2 °F 30.08 in South 0.2 mph 2.3 mph 82.2% 0.00 in 0 W/m2
02:04 60.8 °F 55.3 °F 30.08 in Calm   2 mph 82% 0.00 in 0 W/m2
02:09 60.9 °F 55.4 °F 30.08 in Calm     82% 0.00 in 0 W/m2
02:14 60.8 °F 55.3 °F 30.08 in SSE 0.6 mph 4 mph 82% 0.00 in 0 W/m2
02:19 60.7 °F 55.2 °F 30.08 in SSE 0.2 mph 4 mph 82% 0.00 in 0 W/m2
02:24 60.7 °F 55.2 °F 30.08 in SSE 0.3 mph 2.3 mph 82% 0.00 in 0 W/m2
02:29 60.6 °F 55.1 °F 30.08 in SSE 0.2 mph 2.3 mph 82% 0.00 in 0 W/m2
02:34 60.8 °F 55.3 °F 30.08 in SSE 0.2 mph 2 mph 82% 0.00 in 0 W/m2
02:39 60.7 °F 55.2 °F 30.08 in SSE 0.2 mph 2.3 mph 82% 0.00 in 0 W/m2
02:44 60.6 °F 55.1 °F 30.08 in Calm   1 mph 82% 0.00 in 0 W/m2
02:49 60.6 °F 55.1 °F 30.08 in Calm     82% 0.00 in 0 W/m2
02:54 60.4 °F 55 °F 30.08 in Calm     82.3% 0.00 in 0 W/m2
02:59 60.2 °F 55 °F 30.08 in Calm     83% 0.00 in 0 W/m2
03:04 60 °F 55 °F 30.08 in Calm     83.6% 0.00 in 0 W/m2
03:09 60.1 °F 55.2 °F 30.08 in Calm     84% 0.00 in 0 W/m2
03:14 60.1 °F 55.1 °F 30.08 in Calm     83.8% 0.00 in 0 W/m2
03:19 59.9 °F 55.1 °F 30.08 in Calm     84% 0.00 in 0 W/m2
03:24 59.8 °F 55 °F 30.08 in Calm     84% 0.00 in 0 W/m2
03:29 59.8 °F 55 °F 30.08 in Calm     84% 0.00 in 0 W/m2
03:34 59.7 °F 54.9 °F 30.08 in SW 0.2 mph 2.3 mph 84% 0.00 in 0 W/m2
03:39 59.6 °F 54.8 °F 30.08 in SW 0.7 mph 3.5 mph 84% 0.00 in 0 W/m2
03:44 59.5 °F 54.8 °F 30.09 in South 0.8 mph 3.5 mph 84.3% 0.00 in 0 W/m2
03:49 59.4 °F 54.8 °F 30.09 in SSE 0.5 mph 3 mph 84.7% 0.00 in 0 W/m2
03:54 59.6 °F 55 °F 30.09 in SE 0.2 mph 2.3 mph 84.5% 0.00 in 0 W/m2
03:59 59.7 °F 54.9 °F 30.09 in SSE 0.9 mph 3.5 mph 84% 0.00 in 0 W/m2
04:04 59.7 °F 54.9 °F 30.09 in SE 0.6 mph 3 mph 84% 0.00 in 0 W/m2
04:09 59.8 °F 55 °F 30.09 in SW 0.3 mph 2.3 mph 84% 0.00 in 0 W/m2
04:14 59.9 °F 55.1 °F 30.09 in South 1.2 mph 4 mph 84% 0.00 in 0 W/m2
04:19 59.8 °F 55 °F 30.09 in SSE 0.7 mph 4 mph 84% 0.00 in 0 W/m2
04:24 59.8 °F 55 °F 30.10 in SSE 0.5 mph 3 mph 84% 0.00 in 0 W/m2
04:29 59.8 °F 54.9 °F 30.10 in SSE 0.7 mph 3.5 mph 83.7% 0.00 in 0 W/m2
04:34 59.8 °F 54.6 °F 30.10 in South 1.2 mph 4 mph 83% 0.00 in 0 W/m2
04:39 59.5 °F 54.3 °F 30.10 in SE 1.7 mph 4 mph 83% 0.00 in 0 W/m2
04:44 59.4 °F 54.3 °F 30.10 in SSE 2 mph 5 mph 83% 0.00 in 0 W/m2
04:49 59.5 °F 54.4 °F 30.10 in SSE 2.2 mph 5 mph 83.2% 0.00 in 0 W/m2
04:54 59.6 °F 54.4 °F 30.10 in SSE 2 mph 5 mph 83% 0.00 in 0 W/m2
04:59 59.6 °F 54.4 °F 30.10 in South 1.8 mph 6 mph 83% 0.00 in 0 W/m2
05:04 59.7 °F 54.5 °F 30.10 in SE 1.8 mph 6 mph 82.7% 0.00 in 0 W/m2
05:09 59.7 °F 54.4 °F 30.10 in SSE 2.6 mph 7 mph 82.9% 0.00 in 0 W/m2
05:14 59.4 °F 54.2 °F 30.10 in SSE 3.1 mph 7 mph 83% 0.00 in 0 W/m2
05:19 59.3 °F 54.1 °F 30.10 in SSE 2.9 mph 7 mph 83% 0.00 in 0 W/m2
05:24 59.4 °F 54.2 °F 30.10 in SE 2.2 mph 6 mph 83% 0.00 in 0 W/m2
05:29 59.3 °F 54.1 °F 30.10 in SSE 3 mph 6 mph 83% 0.00 in 0 W/m2
05:34 59.1 °F 54 °F 30.10 in SSE 2.5 mph 6 mph 83.1% 0.00 in 0 W/m2
05:39 59.4 °F 54.3 °F 30.10 in SE 1.9 mph 5 mph 83.2% 0.00 in 5 W/m2
05:44 59.6 °F 54.4 °F 30.10 in SSE 2.2 mph 5 mph 83% 0.00 in 7 W/m2
05:49 59.6 °F 54.4 °F 30.11 in SSE 1 mph 5 mph 83% 0.00 in 7 W/m2
05:54 59.5 °F 54.3 °F 30.11 in SSE 2.1 mph 5 mph 83% 0.00 in 9 W/m2
05:59 59.5 °F 54.3 °F 30.11 in SE 1.6 mph 5 mph 83% 0.00 in 11 W/m2
06:04 59.6 °F 54.4 °F 30.11 in SSE 2.1 mph 4 mph 83% 0.00 in 12 W/m2
06:09 59.5 °F 54.3 °F 30.11 in SSE 1.5 mph 7 mph 83% 0.00 in 16 W/m2
06:14 59.5 °F 54.3 °F 30.11 in SSE 2.8 mph 7 mph 83% 0.00 in 19 W/m2
06:19 59.5 °F 54.3 °F 30.11 in SE 2.5 mph 8 mph 83% 0.00 in 19 W/m2
06:24 59.5 °F 54.3 °F 30.11 in South 3.1 mph 8.1 mph 83% 0.00 in 19 W/m2
06:29 59.4 °F 54.2 °F 30.11 in South 1.8 mph 7 mph 83% 0.00 in 21 W/m2
06:34 59.4 °F 54.2 °F 30.12 in SSE 1.7 mph 7 mph 83% 0.00 in 25 W/m2
06:39 59.3 °F 54.2 °F 30.12 in South 1.9 mph 4 mph 83% 0.00 in 30 W/m2
06:44 59.3 °F 54.1 °F 30.12 in SSE 2.5 mph 6 mph 83% 0.00 in 30 W/m2
06:49 59.2 °F 54 °F 30.12 in SSW 2.7 mph 7 mph 83.1% 0.00 in 32 W/m2
06:54 59.3 °F 54.4 °F 30.12 in SW 1.7 mph 7 mph 83.9% 0.00 in 37 W/m2
06:59 59.5 °F 54.3 °F 30.12 in SW 1.9 mph 7 mph 83% 0.00 in 37 W/m2
07:04 59.5 °F 54.3 °F 30.12 in SW 0.9 mph 7 mph 83% 0.00 in 39 W/m2
07:09 59.7 °F 54.4 °F 30.12 in SW 1.1 mph 4 mph 82.7% 0.00 in 40 W/m2
07:14 59.7 °F 54.5 °F 30.12 in SSW 1.2 mph 4 mph 83% 0.00 in 42 W/m2
07:19 59.8 °F 54.6 °F 30.12 in WSW 1.5 mph 5 mph 83% 0.00 in 47 W/m2
07:24 59.8 °F 54.3 °F 30.12 in WSW 1.7 mph 5 mph 82.2% 0.00 in 51 W/m2
07:29 59.4 °F 54.2 °F 30.12 in SW 2 mph 4 mph 83.2% 0.00 in 62 W/m2
07:34 59.4 °F 54.2 °F 30.12 in South 2.5 mph 5 mph 83% 0.00 in 69 W/m2
07:39 59.8 °F 54.4 °F 30.13 in ESE 1.4 mph 5 mph 82.5% 0.00 in 79 W/m2
07:44 60.2 °F 54.5 °F 30.13 in SE 2.7 mph 6 mph 81.4% 0.00 in 81 W/m2
07:49 60.3 °F 54.5 °F 30.13 in SE 3.1 mph 7 mph 81.2% 0.00 in 83 W/m2
07:54 60.2 °F 54.4 °F 30.13 in SSE 2.4 mph 7 mph 81.2% 0.00 in 84 W/m2
07:59 60.1 °F 54.3 °F 30.13 in SSE 0.8 mph 5 mph 81.2% 0.00 in 88 W/m2
08:04 60.3 °F 54.4 °F 30.13 in SE 2.4 mph 5 mph 81% 0.00 in 88 W/m2
08:09 60.2 °F 54.3 °F 30.13 in SSE 2.1 mph 5 mph 81% 0.00 in 90 W/m2
08:14 60.1 °F 54.3 °F 30.13 in SSE 1.9 mph 5 mph 81.2% 0.00 in 93 W/m2
08:19 60.5 °F 54.6 °F 30.13 in SE 2.6 mph 6 mph 81.2% 0.00 in 97 W/m2
08:24 60.4 °F 54.5 °F 30.13 in SE 1.5 mph 6 mph 81% 0.00 in 100 W/m2
08:29 60.6 °F 54.7 °F 30.14 in SE 2.1 mph 5.8 mph 81% 0.00 in 107 W/m2
08:34 60.6 °F 54.6 °F 30.14 in SE 3.3 mph 7 mph 80.7% 0.00 in 120 W/m2
08:39 60.7 °F 54.7 °F 30.13 in SE 2.3 mph 7 mph 80.7% 0.00 in 125 W/m2
08:44 60.8 °F 54.6 °F 30.13 in ESE 1.3 mph 5 mph 80.1% 0.00 in 125 W/m2
08:49 60.7 °F 54.6 °F 30.13 in South 1.4 mph 4 mph 80.2% 0.00 in 134 W/m2
08:54 61 °F 54.8 °F 30.14 in ESE 1.8 mph 7 mph 80% 0.00 in 134 W/m2
08:59 61 °F 54.8 °F 30.14 in SE 1.4 mph 7 mph 80% 0.00 in 141 W/m2
09:04 61.3 °F 54.9 °F 30.14 in ESE 0.9 mph 3.5 mph 79.5% 0.00 in 142 W/m2
09:09 61.4 °F 54.8 °F 30.14 in SE 1.5 mph 5 mph 79% 0.00 in 148 W/m2
09:14 61 °F 54.8 °F 30.14 in South 3.6 mph 8.1 mph 79.9% 0.00 in 153 W/m2
09:19 60.9 °F 54.7 °F 30.14 in SSE 1.1 mph 8 mph 80% 0.00 in 153 W/m2
09:24 61.3 °F 55.1 °F 30.14 in Calm   4 mph 80% 0.00 in 151 W/m2
09:29 61.8 °F 55.2 °F 30.14 in WNW 2 mph 6 mph 79% 0.00 in 155 W/m2
09:34 61.2 °F 54.7 °F 30.14 in WNW 2.9 mph 6 mph 79.3% 0.00 in 155 W/m2
09:39 61 °F 54.8 °F 30.14 in WSW 1.5 mph 6 mph 80% 0.00 in 162 W/m2
09:44 61 °F 54.8 °F 30.14 in West 1.8 mph 6 mph 80% 0.00 in 174 W/m2
09:49 61.7 °F 55.3 °F 30.14 in SE 1.2 mph 4 mph 79.3% 0.00 in 181 W/m2
09:54 62.6 °F 55.5 °F 30.14 in NNW 1.2 mph 4 mph 77.7% 0.00 in 190 W/m2
09:59 62.3 °F 55.3 °F 30.14 in SSW 1.9 mph 6 mph 77.8% 0.00 in 193 W/m2
10:04 62.1 °F 55.3 °F 30.14 in SSE 1 mph 6 mph 78.2% 0.00 in 206 W/m2
10:09 62.3 °F 55.3 °F 30.14 in SSE 1.7 mph 4 mph 77.8% 0.00 in 213 W/m2
10:14 62.3 °F 55.3 °F 30.14 in WSW 1.6 mph 4 mph 78% 0.00 in 230 W/m2
10:19 62.2 °F 55.4 °F 30.14 in WNW 1.7 mph 6 mph 78.3% 0.00 in 236 W/m2
10:24 62.3 °F 55.4 °F 30.14 in WSW 1.5 mph 6 mph 78% 0.00 in 250 W/m2
10:29 62.8 °F 55.6 °F 30.14 in South 0.7 mph 3 mph 77.3% 0.00 in 276 W/m2
10:34 63.2 °F 55.8 °F 30.14 in SSW 1.8 mph 4 mph 76.8% 0.00 in 294 W/m2
10:39 62.9 °F 55.6 °F 30.14 in SW 1.4 mph 4 mph 77% 0.00 in 311 W/m2
10:44 63.2 °F 55.9 °F 30.14 in SSE 1.6 mph 4 mph 76.8% 0.00 in 316 W/m2
10:49 63.6 °F 55.9 °F 30.14 in South 1.7 mph 4 mph 75.9% 0.00 in 316 W/m2
10:54 63.6 °F 55.7 °F 30.14 in SE 0.8 mph 4 mph 75.6% 0.00 in 315 W/m2
10:59 63.6 °F 55.9 °F 30.14 in WNW 3 mph 7 mph 76% 0.00 in 308 W/m2
11:04 62.9 °F 55.5 °F 30.14 in SW 2 mph 7 mph 76.5% 0.00 in 306 W/m2
11:09 63.4 °F 56 °F 30.14 in South 1.2 mph 5 mph 76.6% 0.00 in 306 W/m2
11:14 63.7 °F 55.9 °F 30.14 in WSW 2.7 mph 8.1 mph 75.8% 0.00 in 329 W/m2
11:19 63.3 °F 55.6 °F 30.14 in West 2.5 mph 8 mph 76% 0.00 in 352 W/m2
11:24 63.4 °F 56 °F 30.14 in WNW 1.6 mph 5 mph 76.7% 0.00 in 397 W/m2
11:29 64.5 °F 56.4 °F 30.14 in South 2.1 mph 5 mph 74.9% 0.00 in 427 W/m2
11:34 64.7 °F 56 °F 30.14 in South 1.6 mph 5 mph 73.5% 0.00 in 478 W/m2
11:39 64.7 °F 56.2 °F 30.14 in South 3 mph 8.1 mph 74% 0.00 in 478 W/m2
11:44 65 °F 56.6 °F 30.14 in SSW 1.5 mph 8 mph 74.1% 0.00 in 450 W/m2
11:49 65.4 °F 56.3 °F 30.13 in SSW 1.6 mph 7 mph 72.4% 0.00 in 552 W/m2
11:54 65.2 °F 56.4 °F 30.13 in SW 1.6 mph 7 mph 73.3% 0.00 in 561 W/m2
11:59 65.7 °F 56.5 °F 30.14 in South 1.7 mph 5 mph 72.2% 0.00 in 448 W/m2
12:04 64.9 °F 55.9 °F 30.13 in WSW 4 mph 9.2 mph 72.9% 0.00 in 478 W/m2
12:09 64.4 °F 56 °F 30.13 in West 3 mph 9 mph 74.3% 0.00 in 998 W/m2
12:14 66.2 °F 57 °F 30.13 in NW 1.7 mph 7 mph 72.2% 0.00 in 949 W/m2
12:19 66.6 °F 56.8 °F 30.13 in SW 2.7 mph 7 mph 70.9% 0.00 in 893 W/m2
12:24 66.7 °F 57 °F 30.13 in SW 2.3 mph 6 mph 71% 0.00 in 882 W/m2
12:29 67.7 °F 57.1 °F 30.13 in South 2.3 mph 7 mph 68.7% 0.00 in 889 W/m2
12:34 67.7 °F 57.2 °F 30.13 in SSW 1.8 mph 7 mph 69% 0.00 in 884 W/m2
12:39 67.7 °F 57.1 °F 30.13 in West 3.2 mph 10 mph 68.8% 0.00 in 874 W/m2
12:44 67.8 °F 57.1 °F 30.13 in WSW 4.1 mph 10.4 mph 68.6% 0.00 in 875 W/m2
12:49 68.1 °F 57.1 °F 30.13 in South 4.1 mph 8.1 mph 68% 0.00 in 879 W/m2
12:54 68.1 °F 57 °F 30.13 in WSW 2.2 mph 8 mph 67.8% 0.00 in 882 W/m2
Gobles Weather Renton WA
Compliments of Weather Underground - 2 mb